Birmingham, AL (35243)

4:44 PM CDT on May 05, 2015 (GMT -0500)
Thorn Berry | | Change Station
CLOSE
Current Station
Personal Weather Station
Location: Birmingham, AL
Elevation: 547 ft
Nearby Weather Stations

Elev 547 ft 33.40 °N, 86.72 °W | Updated 3 minutes ago

Partly Cloudy
Partly Cloudy
79.5 °F
Feels Like 80 °F
N
0.0
Wind Variable Wind from NE
Gusts 0.0 mph

Today
High -- | Low -- °F
--% Chance of Precip.
Yesterday
High -- | Low -- °F
Precip. -- in
5:55 AM 7:32 PM
Full, 97% visible
Pressure 30.19 in
Visibility 10.0 miles
Clouds Few 6000 ft
Scattered Clouds 8000 ft
Scattered Clouds 9500 ft
Heat Index 80 °F
Dew Point 55 °F
Humidity 43%
Rainfall 0.00 in
Snow Depth Not available.
UV 5 out of 12
Pollen 7.60 out of 12
Air Quality Not available.
Flu Activity Sporadic
METAR KBHM 052053Z 15004KT 10SM FEW060 SCT080 SCT095 27/12 A3021 RMK AO2 SLP223 T02670122 58024

More Conditions Fewer Conditions

Pressure 30.19 in
Visibility 10.0 miles
Clouds Few 6000 ft
Scattered Clouds 8000 ft
Scattered Clouds 9500 ft
Heat Index 80 °F
Dew Point 55 °F
Humidity 43%
Rainfall 0.00 in
Snow Depth Not available.
UV 5 out of 12
Pollen 7.60 out of 12
Air Quality Not available.
Flu Activity Sporadic
METAR KBHM 052053Z 15004KT 10SM FEW060 SCT080 SCT095 27/12 A3021 RMK AO2 SLP223 T02670122 58024

More Conditions Fewer Conditions

10-Day Weather Forecast

Almanac

Astronomy

May. 05, 2015 Rise Set
Actual Time
Civil Twilight
Nautical Twilight
Astronomical Twilight
Moon
Length of Visible Light
Length of Day
Tomorrow will be .
, % of the Moon is Illuminated

Today's Extremes

State Highs State Lows

Community

WunderPhotos

Upload Photos

1,818,982 photos uploaded!

WunderBlogs® & News

Nearby

Air Quality

  Air Quality AQ Index Pollutant
Not available.

Snow Depth

Station Depth Elevation

Earthquake Activity

City Distance Mag. Time & Date
Minimum magnitude displayed is 2.5.

Coastal Water Temperatures

Place Temperature

Stations

Nearby Weather Stations

Station Location Temp. Windchill Dew Point Humidity Wind Precip. Elev Updated Type